createdAt,value
2023-04-17T00:00:00.227Z,1019.79
2023-04-17T00:01:02.548Z,1019.77
2023-04-17T00:02:01.126Z,1019.8
2023-04-17T00:03:01.420Z,1019.79
2023-04-17T00:04:01.234Z,1019.83
2023-04-17T00:05:02.469Z,1019.81
2023-04-17T00:06:04.769Z,1019.81
2023-04-17T00:07:01.079Z,1019.89
2023-04-17T00:08:01.097Z,1019.83
2023-04-17T00:09:00.782Z,1019.85
2023-04-17T00:10:01.140Z,1019.86
2023-04-17T00:11:08.438Z,1019.83
2023-04-17T00:12:00.689Z,1019.82
2023-04-17T00:13:00.434Z,1019.77
2023-04-17T00:14:00.334Z,1019.78
2023-04-17T00:14:59.985Z,1019.79
2023-04-17T00:16:08.289Z,1019.86
2023-04-17T00:17:01.037Z,1019.8
2023-04-17T00:18:01.133Z,1019.83
2023-04-17T00:19:00.782Z,1019.79
2023-04-17T00:20:00.536Z,1019.79
2023-04-17T00:21:10.735Z,1019.83
2023-04-17T00:22:01.448Z,1019.83
2023-04-17T00:23:01.495Z,1019.86
2023-04-17T00:24:01.754Z,1019.85
2023-04-17T00:25:01.178Z,1019.85
2023-04-17T00:26:13.012Z,1019.84
2023-04-17T00:27:01.111Z,1019.83
2023-04-17T00:28:02.086Z,1019.82
2023-04-17T00:29:01.119Z,1019.78
2023-04-17T00:30:00.793Z,1019.84
2023-04-17T00:31:13.799Z,1019.84
2023-04-17T00:32:01.152Z,1019.82
2023-04-17T00:33:01.142Z,1019.84
2023-04-17T00:34:01.047Z,1019.85
2023-04-17T00:35:01.186Z,1019.83
2023-04-17T00:36:16.715Z,1019.87
2023-04-17T00:37:01.096Z,1019.85
2023-04-17T00:38:01.080Z,1019.85
2023-04-17T00:39:00.633Z,1019.84
2023-04-17T00:40:00.252Z,1019.84
2023-04-17T00:40:59.864Z,1019.89
2023-04-17T00:42:01.920Z,1019.9
2023-04-17T00:43:01.123Z,1019.91
2023-04-17T00:44:01.111Z,1019.91
2023-04-17T00:45:01.490Z,1019.87
2023-04-17T00:46:02.265Z,1019.89
2023-04-17T00:47:01.134Z,1019.91
2023-04-17T00:48:01.152Z,1019.91
2023-04-17T00:49:01.041Z,1019.93
2023-04-17T00:50:01.073Z,1019.91
2023-04-17T00:51:01.056Z,1019.88
2023-04-17T00:52:01.067Z,1019.88
2023-04-17T00:53:01.063Z,1019.94
2023-04-17T00:54:01.443Z,1019.97
2023-04-17T00:55:01.032Z,1019.92
2023-04-17T00:56:01.080Z,1019.95
2023-04-17T00:57:01.095Z,1019.94
2023-04-17T00:58:01.103Z,1019.9
2023-04-17T00:59:01.106Z,1019.91
2023-04-17T01:00:01.132Z,1019.94
2023-04-17T01:01:01.178Z,1019.94
2023-04-17T01:02:01.417Z,1019.95
2023-04-17T01:03:01.421Z,1019.97
2023-04-17T01:04:02.219Z,1019.93
2023-04-17T01:05:01.153Z,1019.97
2023-04-17T01:06:01.045Z,1019.97
2023-04-17T01:07:01.083Z,1019.93
2023-04-17T01:08:01.050Z,1019.96
2023-04-17T01:09:01.117Z,1019.94
2023-04-17T01:10:01.068Z,1019.96
2023-04-17T01:11:01.074Z,1019.94
2023-04-17T01:12:01.425Z,1019.97
2023-04-17T01:13:01.144Z,1019.97
2023-04-17T01:14:02.228Z,1019.97
2023-04-17T01:15:01.112Z,1019.95
2023-04-17T01:16:01.197Z,1019.98
2023-04-17T01:17:01.298Z,1020
2023-04-17T01:18:01.642Z,1019.97
2023-04-17T01:19:01.144Z,1020.01
2023-04-17T01:20:01.856Z,1019.97
2023-04-17T01:21:02.573Z,1019.98
2023-04-17T01:22:01.796Z,1019.98
2023-04-17T01:23:01.236Z,1019.93
2023-04-17T01:24:02.040Z,1019.99
2023-04-17T01:25:02.081Z,1019.97
2023-04-17T01:26:01.072Z,1019.99
2023-04-17T01:27:01.077Z,1020
2023-04-17T01:28:01.094Z,1019.97
2023-04-17T01:29:01.295Z,1019.94
2023-04-17T01:30:01.209Z,1019.97
2023-04-17T01:31:01.332Z,1019.99
2023-04-17T01:32:01.120Z,1019.94
2023-04-17T01:33:01.149Z,1019.97
2023-04-17T01:34:00.803Z,1019.96
2023-04-17T01:35:00.418Z,1019.97
2023-04-17T01:36:00.087Z,1019.99
2023-04-17T01:36:59.658Z,1019.97
2023-04-17T01:38:01.741Z,1019.95
2023-04-17T01:39:01.340Z,1019.96
2023-04-17T01:40:01.264Z,1020
2023-04-17T01:41:02.065Z,1019.99
2023-04-17T01:42:01.329Z,1019.99
2023-04-17T01:43:01.098Z,1020
2023-04-17T01:44:01.138Z,1019.98
2023-04-17T01:45:01.659Z,1019.98
2023-04-17T01:46:02.241Z,1020.01
2023-04-17T01:47:01.400Z,1020.01
2023-04-17T01:48:02.455Z,1019.99
2023-04-17T01:49:02.030Z,1020
2023-04-17T01:50:01.157Z,1020.03
2023-04-17T01:51:01.067Z,1020.04
2023-04-17T01:52:01.054Z,1020.04
2023-04-17T01:53:01.124Z,1020.01
2023-04-17T01:54:02.095Z,1020.03
2023-04-17T01:55:07.876Z,1020
2023-04-17T01:56:01.901Z,1020.07
2023-04-17T01:57:04.082Z,1020.04
2023-04-17T01:58:02.407Z,1019.99
2023-04-17T01:59:01.792Z,1020.07
2023-04-17T02:00:02.630Z,1019.96
2023-04-17T02:01:01.553Z,1020
2023-04-17T02:02:06.948Z,1019.99
2023-04-17T02:03:02.195Z,1020
2023-04-17T02:04:01.167Z,1019.96
2023-04-17T02:05:01.538Z,1019.98
2023-04-17T02:06:02.034Z,1019.98
2023-04-17T02:07:10.184Z,1020.01
2023-04-17T02:08:01.135Z,1020
2023-04-17T02:09:00.811Z,1020.04
2023-04-17T02:10:00.428Z,1020.03
2023-04-17T02:11:00.163Z,1020.03
2023-04-17T02:12:12.376Z,1020.04
2023-04-17T02:13:01.162Z,1020.07
2023-04-17T02:14:01.494Z,1020.07
2023-04-17T02:15:00.928Z,1020.05
2023-04-17T02:16:01.133Z,1020.06
2023-04-17T02:17:15.935Z,1020.13
2023-04-17T02:18:02.156Z,1020.14
2023-04-17T02:19:01.011Z,1020.11
2023-04-17T02:20:01.085Z,1020.17
2023-04-17T02:21:01.102Z,1020.15
2023-04-17T02:22:01.343Z,1020.17
2023-04-17T02:23:01.141Z,1020.15
2023-04-17T02:24:01.130Z,1020.21
2023-04-17T02:25:01.152Z,1020.2
2023-04-17T02:26:01.157Z,1020.23
2023-04-17T02:27:01.165Z,1020.24
2023-04-17T02:28:04.237Z,1020.27
2023-04-17T02:29:01.769Z,1020.22
2023-04-17T02:30:01.688Z,1020.26
2023-04-17T02:31:01.816Z,1020.2
2023-04-17T02:32:01.089Z,1020.24
2023-04-17T02:33:01.167Z,1020.22
2023-04-17T02:34:01.837Z,1020.22
2023-04-17T02:35:00.996Z,1020.25
2023-04-17T02:36:01.514Z,1020.26
2023-04-17T02:37:02.130Z,1020.25
2023-04-17T02:38:01.118Z,1020.24
2023-04-17T02:39:01.045Z,1020.2
2023-04-17T02:40:01.157Z,1020.23
2023-04-17T02:41:01.091Z,1020.24
2023-04-17T02:42:01.781Z,1020.25
2023-04-17T02:43:01.255Z,1020.25
2023-04-17T02:44:01.148Z,1020.24
2023-04-17T02:45:02.099Z,1020.19
2023-04-17T02:46:01.076Z,1020.22
2023-04-17T02:47:01.118Z,1020.23
2023-04-17T02:48:01.154Z,1020.22
2023-04-17T02:49:01.081Z,1020.19
2023-04-17T02:50:01.092Z,1020.2
2023-04-17T02:51:01.122Z,1020.23
2023-04-17T02:52:01.142Z,1020.24
2023-04-17T02:53:01.592Z,1020.25
2023-04-17T02:54:01.648Z,1020.25
2023-04-17T02:55:01.739Z,1020.26
2023-04-17T02:56:01.333Z,1020.3
2023-04-17T02:57:01.044Z,1020.32
2023-04-17T02:58:01.052Z,1020.31
2023-04-17T02:59:01.076Z,1020.27
2023-04-17T03:00:01.609Z,1020.33
2023-04-17T03:01:01.544Z,1020.37
2023-04-17T03:02:02.313Z,1020.34
2023-04-17T03:03:02.118Z,1020.32
2023-04-17T03:04:02.264Z,1020.34
2023-04-17T03:05:02.414Z,1020.32
2023-04-17T03:06:02.158Z,1020.34
2023-04-17T03:07:01.109Z,1020.33
2023-04-17T03:08:01.461Z,1020.35
2023-04-17T03:09:01.128Z,1020.35
2023-04-17T03:10:01.206Z,1020.34
2023-04-17T03:11:01.126Z,1020.32
2023-04-17T03:12:01.028Z,1020.36
2023-04-17T03:13:01.292Z,1020.35
2023-04-17T03:14:02.497Z,1020.35
2023-04-17T03:15:01.564Z,1020.35
2023-04-17T03:16:01.203Z,1020.41
2023-04-17T03:17:01.119Z,1020.42
2023-04-17T03:18:01.165Z,1020.41
2023-04-17T03:19:01.853Z,1020.41
2023-04-17T03:20:01.936Z,1020.44
2023-04-17T03:21:01.105Z,1020.44
2023-04-17T03:22:01.111Z,1020.46
2023-04-17T03:23:01.905Z,1020.44
2023-04-17T03:24:01.132Z,1020.41
2023-04-17T03:25:01.128Z,1020.44
2023-04-17T03:26:01.462Z,1020.45
2023-04-17T03:27:01.432Z,1020.47
2023-04-17T03:28:01.140Z,1020.46
2023-04-17T03:29:01.162Z,1020.46
2023-04-17T03:30:01.117Z,1020.51
2023-04-17T03:31:01.064Z,1020.54
2023-04-17T03:32:01.102Z,1020.51
2023-04-17T03:33:01.180Z,1020.54
2023-04-17T03:34:01.416Z,1020.52
2023-04-17T03:35:01.992Z,1020.51
2023-04-17T03:36:01.225Z,1020.51
2023-04-17T03:37:01.096Z,1020.55
2023-04-17T03:38:02.990Z,1020.48
2023-04-17T03:39:00.812Z,1020.54
2023-04-17T03:40:00.494Z,1020.53
2023-04-17T03:41:00.197Z,1020.52
2023-04-17T03:42:00.038Z,1020.55
2023-04-17T03:43:05.469Z,1020.55
2023-04-17T03:44:01.413Z,1020.58
2023-04-17T03:45:01.046Z,1020.54
2023-04-17T03:46:01.069Z,1020.57
2023-04-17T03:47:01.125Z,1020.57
2023-04-17T03:48:09.372Z,1020.59
2023-04-17T03:49:01.766Z,1020.57
2023-04-17T03:50:01.369Z,1020.66
2023-04-17T03:51:01.937Z,1020.63
2023-04-17T03:52:01.165Z,1020.61
2023-04-17T03:53:10.672Z,1020.62
2023-04-17T03:54:01.355Z,1020.62
2023-04-17T03:55:01.106Z,1020.64
2023-04-17T03:56:01.214Z,1020.64
2023-04-17T03:57:01.133Z,1020.64
2023-04-17T03:58:13.324Z,1020.66
2023-04-17T03:59:01.028Z,1020.67
2023-04-17T04:00:01.141Z,1020.69
2023-04-17T04:01:01.047Z,1020.7
2023-04-17T04:02:01.133Z,1020.69
2023-04-17T04:03:14.810Z,1020.73
2023-04-17T04:04:04.150Z,1020.74
2023-04-17T04:05:02.299Z,1020.73
2023-04-17T04:06:02.493Z,1020.75
2023-04-17T04:07:01.083Z,1020.77
2023-04-17T04:08:16.857Z,1020.8
2023-04-17T04:09:01.080Z,1020.81
2023-04-17T04:10:01.099Z,1020.86
2023-04-17T04:11:01.118Z,1020.82
2023-04-17T04:12:01.104Z,1020.87
2023-04-17T04:13:01.061Z,1020.87
2023-04-17T04:14:01.109Z,1020.86
2023-04-17T04:15:01.073Z,1020.92
2023-04-17T04:16:00.938Z,1020.93
2023-04-17T04:17:01.098Z,1020.91
2023-04-17T04:18:01.098Z,1020.96
2023-04-17T04:19:01.490Z,1020.89
2023-04-17T04:20:01.071Z,1020.93
2023-04-17T04:21:01.067Z,1020.97
2023-04-17T04:22:01.064Z,1020.93
2023-04-17T04:23:00.747Z,1020.98
2023-04-17T04:24:00.359Z,1020.99
2023-04-17T04:25:00.047Z,1021.03
2023-04-17T04:25:59.756Z,1020.98
2023-04-17T04:27:01.452Z,1021.04
2023-04-17T04:28:01.333Z,1021.04
2023-04-17T04:29:01.818Z,1021.02
2023-04-17T04:30:01.113Z,1021.06
2023-04-17T04:31:01.460Z,1021.04
2023-04-17T04:32:03.120Z,1021.1
2023-04-17T04:33:01.291Z,1021.06
2023-04-17T04:34:02.059Z,1021.09
2023-04-17T04:35:01.207Z,1021.12
2023-04-17T04:36:01.657Z,1021.05
2023-04-17T04:37:01.058Z,1021.12
2023-04-17T04:38:01.065Z,1021.11
2023-04-17T04:39:01.358Z,1021.11
2023-04-17T04:40:01.283Z,1021.07
2023-04-17T04:41:03.992Z,1021.15
2023-04-17T04:42:01.696Z,1021.14
2023-04-17T04:43:00.636Z,1021.16
2023-04-17T04:44:00.469Z,1021.11
2023-04-17T04:45:00.077Z,1021.09
2023-04-17T04:45:59.789Z,1021.12
2023-04-17T04:47:01.760Z,1021.16
2023-04-17T04:48:01.438Z,1021.11
2023-04-17T04:49:01.069Z,1021.13
2023-04-17T04:50:01.049Z,1021.18
2023-04-17T04:51:01.050Z,1021.09
2023-04-17T04:52:01.166Z,1021.14
2023-04-17T04:53:01.659Z,1021.15
2023-04-17T04:54:01.481Z,1021.18
2023-04-17T04:55:01.749Z,1021.18
2023-04-17T04:56:02.214Z,1021.19
2023-04-17T04:57:02.230Z,1021.21
2023-04-17T04:58:01.527Z,1021.24
2023-04-17T04:59:01.180Z,1021.28
2023-04-17T05:00:01.109Z,1021.2
2023-04-17T05:01:01.225Z,1021.3
2023-04-17T05:02:01.996Z,1021.29
2023-04-17T05:03:01.379Z,1021.24
2023-04-17T05:04:02.361Z,1021.24
2023-04-17T05:05:01.582Z,1021.27
2023-04-17T05:06:01.039Z,1021.25
2023-04-17T05:07:01.060Z,1021.24
2023-04-17T05:08:01.049Z,1021.31
2023-04-17T05:09:01.085Z,1021.31
2023-04-17T05:10:01.079Z,1021.31
2023-04-17T05:11:01.081Z,1021.32
2023-04-17T05:12:01.100Z,1021.37
2023-04-17T05:13:01.100Z,1021.36
2023-04-17T05:14:01.740Z,1021.34
2023-04-17T05:15:01.062Z,1021.39
2023-04-17T05:16:01.974Z,1021.39
2023-04-17T05:17:02.709Z,1021.43
2023-04-17T05:18:01.245Z,1021.45
2023-04-17T05:19:01.636Z,1021.45
2023-04-17T05:20:02.618Z,1021.47
2023-04-17T05:21:01.333Z,1021.47
2023-04-17T05:22:01.953Z,1021.51
2023-04-17T05:23:01.040Z,1021.51
2023-04-17T05:24:01.444Z,1021.53
2023-04-17T05:25:01.015Z,1021.51
2023-04-17T05:26:01.063Z,1021.55
2023-04-17T05:27:01.347Z,1021.54
2023-04-17T05:28:01.084Z,1021.58
2023-04-17T05:29:01.100Z,1021.57
2023-04-17T05:30:01.041Z,1021.59
2023-04-17T05:31:01.108Z,1021.63
2023-04-17T05:32:02.817Z,1021.66
2023-04-17T05:33:01.547Z,1021.68
2023-04-17T05:34:02.786Z,1021.62
2023-04-17T05:35:01.181Z,1021.69
2023-04-17T05:36:01.132Z,1021.65
2023-04-17T05:37:01.036Z,1021.67
2023-04-17T05:38:01.065Z,1021.67
2023-04-17T05:39:05.420Z,1021.68
2023-04-17T05:40:01.464Z,1021.69
2023-04-17T05:41:01.036Z,1021.68
2023-04-17T05:42:01.068Z,1021.66
2023-04-17T05:43:01.082Z,1021.69
2023-04-17T05:44:09.532Z,1021.71
2023-04-17T05:45:00.634Z,1021.7
2023-04-17T05:46:00.319Z,1021.73
2023-04-17T05:47:00.061Z,1021.7
2023-04-17T05:47:59.737Z,1021.75
2023-04-17T05:49:12.076Z,1021.74
2023-04-17T05:50:02.187Z,1021.77
2023-04-17T05:51:01.168Z,1021.79
2023-04-17T05:52:01.158Z,1021.78
2023-04-17T05:53:01.027Z,1021.79
2023-04-17T05:54:14.645Z,1021.73
2023-04-17T05:55:01.041Z,1021.77
2023-04-17T05:56:01.040Z,1021.74
2023-04-17T05:57:01.062Z,1021.76
2023-04-17T05:58:05.661Z,1021.77
2023-04-17T05:59:16.408Z,1021.78
2023-04-17T06:00:01.385Z,1021.79
2023-04-17T06:01:01.190Z,1021.77
2023-04-17T06:02:00.810Z,1021.8
2023-04-17T06:03:00.751Z,1021.74
2023-04-17T06:04:02.171Z,1021.77
2023-04-17T06:05:01.398Z,1021.78
2023-04-17T06:06:01.194Z,1021.74
2023-04-17T06:07:01.121Z,1021.72
2023-04-17T06:08:01.115Z,1021.72
2023-04-17T06:09:00.847Z,1021.76
2023-04-17T06:10:00.682Z,1021.7
2023-04-17T06:11:00.421Z,1021.72
2023-04-17T06:12:00.138Z,1021.74
2023-04-17T06:12:59.855Z,1021.73
2023-04-17T06:14:01.778Z,1021.73
2023-04-17T06:15:01.824Z,1021.73
2023-04-17T06:16:01.088Z,1021.72
2023-04-17T06:17:01.154Z,1021.73
2023-04-17T06:18:01.133Z,1021.73
2023-04-17T06:19:01.049Z,1021.73
2023-04-17T06:20:01.319Z,1021.74
2023-04-17T06:21:01.376Z,1021.72
2023-04-17T06:22:01.423Z,1021.76
2023-04-17T06:23:01.393Z,1021.76
2023-04-17T06:24:04.188Z,1021.76
2023-04-17T06:25:01.035Z,1021.79
2023-04-17T06:26:01.029Z,1021.79
2023-04-17T06:27:01.047Z,1021.82
2023-04-17T06:28:01.052Z,1021.82
2023-04-17T06:29:01.062Z,1021.85
2023-04-17T06:30:01.071Z,1021.83
2023-04-17T06:31:01.128Z,1021.8
2023-04-17T06:32:01.071Z,1021.82
2023-04-17T06:33:01.120Z,1021.83
2023-04-17T06:34:01.135Z,1021.83
2023-04-17T06:35:01.788Z,1021.82
2023-04-17T06:36:01.104Z,1021.81
2023-04-17T06:37:01.130Z,1021.82
2023-04-17T06:38:01.158Z,1021.87
2023-04-17T06:39:01.121Z,1021.88
2023-04-17T06:40:01.207Z,1021.87
2023-04-17T06:41:01.170Z,1021.89
2023-04-17T06:42:01.051Z,1021.93
2023-04-17T06:43:01.140Z,1021.93
2023-04-17T06:44:01.051Z,1021.88
2023-04-17T06:45:01.016Z,1021.92
2023-04-17T06:46:01.068Z,1021.98
2023-04-17T06:47:02.867Z,1021.94
2023-04-17T06:48:01.532Z,1021.97
2023-04-17T06:49:00.774Z,1021.95
2023-04-17T06:50:00.411Z,1021.95
2023-04-17T06:50:59.953Z,1022
2023-04-17T06:51:59.549Z,1022.02
2023-04-17T06:53:01.134Z,1022.05
2023-04-17T06:54:01.140Z,1022.05
2023-04-17T06:55:01.125Z,1022.08
2023-04-17T06:56:01.161Z,1022.09
2023-04-17T06:57:01.160Z,1022.13
2023-04-17T06:58:01.188Z,1022.11
2023-04-17T06:59:03.029Z,1022.15
2023-04-17T07:00:01.905Z,1022.17
2023-04-17T07:01:02.638Z,1022.13
2023-04-17T07:02:01.927Z,1022.12
2023-04-17T07:03:01.223Z,1022.16
2023-04-17T07:04:01.062Z,1022.16
2023-04-17T07:05:01.083Z,1022.18
2023-04-17T07:06:01.089Z,1022.19
2023-04-17T07:07:01.114Z,1022.24
2023-04-17T07:08:01.494Z,1022.2
2023-04-17T07:09:00.803Z,1022.26
2023-04-17T07:10:00.394Z,1022.27
2023-04-17T07:10:59.976Z,1022.27
2023-04-17T07:11:59.526Z,1022.28
2023-04-17T07:13:01.757Z,1022.3
2023-04-17T07:14:01.048Z,1022.32
2023-04-17T07:15:01.264Z,1022.27
2023-04-17T07:16:01.577Z,1022.35
2023-04-17T07:17:01.402Z,1022.38
2023-04-17T07:18:01.161Z,1022.34
2023-04-17T07:19:02.031Z,1022.38
2023-04-17T07:20:01.134Z,1022.36
2023-04-17T07:21:01.079Z,1022.41
2023-04-17T07:22:01.101Z,1022.44
2023-04-17T07:23:01.101Z,1022.39
2023-04-17T07:24:01.104Z,1022.39
2023-04-17T07:25:01.353Z,1022.45
2023-04-17T07:26:01.104Z,1022.41
2023-04-17T07:27:01.137Z,1022.41
2023-04-17T07:28:02.614Z,1022.47
2023-04-17T07:29:00.835Z,1022.44
2023-04-17T07:30:00.538Z,1022.42
2023-04-17T07:31:00.385Z,1022.47
2023-04-17T07:32:00.141Z,1022.45
2023-04-17T07:32:59.816Z,1022.45
2023-04-17T07:33:59.404Z,1022.48
2023-04-17T07:35:03.261Z,1022.54
2023-04-17T07:36:02.077Z,1022.48
2023-04-17T07:37:01.396Z,1022.52
2023-04-17T07:38:01.407Z,1022.53
2023-04-17T07:39:02.111Z,1022.5
2023-04-17T07:40:08.068Z,1022.54
2023-04-17T07:41:01.094Z,1022.55
2023-04-17T07:42:01.117Z,1022.52
2023-04-17T07:43:01.112Z,1022.55
2023-04-17T07:44:01.117Z,1022.58
2023-04-17T07:45:10.338Z,1022.56
2023-04-17T07:46:00.548Z,1022.55
2023-04-17T07:47:00.167Z,1022.55
2023-04-17T07:47:59.940Z,1022.6
2023-04-17T07:48:59.603Z,1022.55
2023-04-17T07:50:13.417Z,1022.6
2023-04-17T07:51:01.788Z,1022.57
2023-04-17T07:52:02.015Z,1022.63
2023-04-17T07:53:01.774Z,1022.6
2023-04-17T07:54:01.100Z,1022.65
2023-04-17T07:55:16.961Z,1022.67
2023-04-17T07:56:01.116Z,1022.65
2023-04-17T07:57:01.313Z,1022.68
2023-04-17T07:58:01.121Z,1022.68
2023-04-17T07:59:01.129Z,1022.67
2023-04-17T08:00:01.166Z,1022.69
2023-04-17T08:01:01.611Z,1022.66
2023-04-17T08:02:02.146Z,1022.68
2023-04-17T08:03:03.018Z,1022.68
2023-04-17T08:04:01.625Z,1022.7
2023-04-17T08:05:01.186Z,1022.68
2023-04-17T08:06:01.085Z,1022.69
2023-04-17T08:07:01.060Z,1022.68
2023-04-17T08:08:01.107Z,1022.68
2023-04-17T08:09:01.113Z,1022.72
2023-04-17T08:10:00.769Z,1022.69
2023-04-17T08:11:00.308Z,1022.69
2023-04-17T08:11:59.961Z,1022.74
2023-04-17T08:12:59.544Z,1022.72
2023-04-17T08:14:01.138Z,1022.69
2023-04-17T08:15:00.744Z,1022.67
2023-04-17T08:16:00.400Z,1022.69
2023-04-17T08:17:00.247Z,1022.71
2023-04-17T08:18:00.278Z,1022.7
2023-04-17T08:19:00.240Z,1022.77
2023-04-17T08:20:00.257Z,1022.71
2023-04-17T08:20:59.920Z,1022.79
2023-04-17T08:21:59.526Z,1022.79
2023-04-17T08:23:02.034Z,1022.78
2023-04-17T08:24:01.076Z,1022.82
2023-04-17T08:25:01.079Z,1022.85
2023-04-17T08:26:01.104Z,1022.84
2023-04-17T08:27:01.542Z,1022.81
2023-04-17T08:28:01.203Z,1022.83
2023-04-17T08:29:01.106Z,1022.89
2023-04-17T08:30:00.798Z,1022.89
2023-04-17T08:31:01.320Z,1022.86
2023-04-17T08:32:14.101Z,1022.84
2023-04-17T08:33:01.543Z,1022.86
2023-04-17T08:34:12.965Z,1022.86
2023-04-17T08:35:01.721Z,1022.88
2023-04-17T08:36:03.622Z,1022.89
2023-04-17T08:37:01.112Z,1022.91
2023-04-17T08:38:01.478Z,1022.94
2023-04-17T08:39:01.439Z,1022.95
2023-04-17T08:40:01.193Z,1022.95
2023-04-17T08:41:01.071Z,1023
2023-04-17T08:42:01.075Z,1023
2023-04-17T08:43:01.094Z,1022.97
2023-04-17T08:44:01.162Z,1023
2023-04-17T08:45:01.122Z,1022.98
2023-04-17T08:46:01.512Z,1023
2023-04-17T08:47:01.262Z,1023
2023-04-17T08:48:01.138Z,1023.03
2023-04-17T08:49:01.030Z,1023.02
2023-04-17T08:50:00.495Z,1023.03
2023-04-17T08:51:00.129Z,1023.07
2023-04-17T08:51:59.835Z,1023.04
2023-04-17T08:53:02.597Z,1023.06
2023-04-17T08:54:01.852Z,1023.09
2023-04-17T08:55:01.272Z,1023.03
2023-04-17T08:56:03.132Z,1023.06
2023-04-17T08:57:01.076Z,1023.06
2023-04-17T08:58:01.391Z,1023.09
2023-04-17T08:59:01.038Z,1023.06
2023-04-17T09:00:01.112Z,1023.07
2023-04-17T09:01:01.217Z,1023.12
2023-04-17T09:02:01.382Z,1023.12
2023-04-17T09:03:01.716Z,1023.08
2023-04-17T09:04:01.554Z,1023.13
2023-04-17T09:05:01.521Z,1023.07
2023-04-17T09:06:01.049Z,1023.06
2023-04-17T09:07:01.039Z,1023.14
2023-04-17T09:08:01.285Z,1023.08
2023-04-17T09:09:01.065Z,1023.11
2023-04-17T09:10:00.782Z,1023.12
2023-04-17T09:11:01.066Z,1023.12
2023-04-17T09:12:00.819Z,1023.15
2023-04-17T09:13:01.091Z,1023.15
2023-04-17T09:14:01.481Z,1023.12
2023-04-17T09:15:01.095Z,1023.17
2023-04-17T09:16:03.511Z,1023.16
2023-04-17T09:17:01.181Z,1023.16
2023-04-17T09:18:01.153Z,1023.18
2023-04-17T09:19:01.123Z,1023.14
2023-04-17T09:20:01.402Z,1023.18
2023-04-17T09:21:05.742Z,1023.16
2023-04-17T09:22:01.352Z,1023.22
2023-04-17T09:23:02.105Z,1023.18
2023-04-17T09:24:02.269Z,1023.21
2023-04-17T09:25:01.061Z,1023.25
2023-04-17T09:26:09.269Z,1023.21
2023-04-17T09:27:01.074Z,1023.22
2023-04-17T09:28:01.068Z,1023.19
2023-04-17T09:29:01.032Z,1023.18
2023-04-17T09:30:01.952Z,1023.19
2023-04-17T09:31:12.344Z,1023.2
2023-04-17T09:32:01.472Z,1023.2
2023-04-17T09:33:02.820Z,1023.19
2023-04-17T09:34:02.613Z,1023.19
2023-04-17T09:35:01.730Z,1023.23
2023-04-17T09:36:12.673Z,1023.21
2023-04-17T09:37:01.439Z,1023.24
2023-04-17T09:38:01.039Z,1023.24
2023-04-17T09:39:01.372Z,1023.22
2023-04-17T09:40:01.067Z,1023.24
2023-04-17T09:41:16.400Z,1023.25
2023-04-17T09:42:03.166Z,1023.23
2023-04-17T09:43:01.394Z,1023.22
2023-04-17T09:44:02.242Z,1023.29
2023-04-17T09:45:02.313Z,1023.29
2023-04-17T09:46:01.086Z,1023.31
2023-04-17T09:47:01.402Z,1023.3
2023-04-17T09:48:01.299Z,1023.3
2023-04-17T09:49:02.013Z,1023.3
2023-04-17T09:50:01.564Z,1023.32
2023-04-17T09:51:01.010Z,1023.34
2023-04-17T09:52:01.135Z,1023.3
2023-04-17T09:53:01.042Z,1023.3
2023-04-17T09:54:01.050Z,1023.33
2023-04-17T09:55:01.073Z,1023.37
2023-04-17T09:56:01.045Z,1023.37
2023-04-17T09:57:01.051Z,1023.36
2023-04-17T09:58:01.061Z,1023.44
2023-04-17T09:59:01.059Z,1023.39
2023-04-17T10:00:01.071Z,1023.42
2023-04-17T10:01:01.135Z,1023.42
2023-04-17T10:02:02.949Z,1023.46
2023-04-17T10:03:01.263Z,1023.45
2023-04-17T10:04:01.248Z,1023.45
2023-04-17T10:05:02.149Z,1023.41
2023-04-17T10:06:01.044Z,1023.44
2023-04-17T10:07:01.033Z,1023.46
2023-04-17T10:08:01.527Z,1023.52
2023-04-17T10:09:01.197Z,1023.49
2023-04-17T10:10:01.147Z,1023.46
2023-04-17T10:11:00.818Z,1023.47
2023-04-17T10:12:00.587Z,1023.53
2023-04-17T10:13:00.645Z,1023.52
2023-04-17T10:14:00.447Z,1023.49
2023-04-17T10:15:00.030Z,1023.51
2023-04-17T10:16:00.510Z,1023.52
2023-04-17T10:17:00.172Z,1023.54
2023-04-17T10:17:59.852Z,1023.52
2023-04-17T10:18:59.433Z,1023.52
2023-04-17T10:20:02.177Z,1023.53
2023-04-17T10:21:06.468Z,1023.56
2023-04-17T10:22:01.152Z,1023.52
2023-04-17T10:23:01.141Z,1023.5
2023-04-17T10:24:01.166Z,1023.51
2023-04-17T10:25:00.947Z,1023.51
2023-04-17T10:26:01.579Z,1023.55
2023-04-17T10:27:01.034Z,1023.51
2023-04-17T10:28:01.063Z,1023.53
2023-04-17T10:29:01.057Z,1023.51
2023-04-17T10:30:00.756Z,1023.57
2023-04-17T10:31:00.600Z,1023.57
2023-04-17T10:32:00.399Z,1023.51
2023-04-17T10:33:00.031Z,1023.54
2023-04-17T10:33:59.777Z,1023.49
2023-04-17T10:35:01.405Z,1023.56
2023-04-17T10:36:02.149Z,1023.57
2023-04-17T10:37:01.478Z,1023.55
2023-04-17T10:38:01.124Z,1023.56
2023-04-17T10:39:01.123Z,1023.54
2023-04-17T10:40:01.152Z,1023.55
2023-04-17T10:41:01.171Z,1023.59
2023-04-17T10:42:01.141Z,1023.56
2023-04-17T10:43:01.053Z,1023.57
2023-04-17T10:44:01.421Z,1023.59
2023-04-17T10:45:01.196Z,1023.55
2023-04-17T10:46:01.136Z,1023.53
2023-04-17T10:47:01.059Z,1023.56
2023-04-17T10:48:01.122Z,1023.57
2023-04-17T10:49:01.076Z,1023.54
2023-04-17T10:50:01.506Z,1023.53
2023-04-17T10:51:00.787Z,1023.59
2023-04-17T10:52:00.594Z,1023.54
2023-04-17T10:53:00.493Z,1023.58
2023-04-17T10:54:00.204Z,1023.59
2023-04-17T10:54:59.887Z,1023.58
2023-04-17T10:55:59.622Z,1023.54
2023-04-17T10:57:01.368Z,1023.57
2023-04-17T10:58:01.556Z,1023.64
2023-04-17T10:59:02.602Z,1023.64
2023-04-17T11:00:01.730Z,1023.62
2023-04-17T11:01:01.293Z,1023.63
2023-04-17T11:02:02.174Z,1023.65
2023-04-17T11:03:01.374Z,1023.57
2023-04-17T11:04:01.094Z,1023.63
2023-04-17T11:05:01.133Z,1023.63
2023-04-17T11:06:01.115Z,1023.65
2023-04-17T11:07:01.026Z,1023.62
2023-04-17T11:08:01.387Z,1023.64
2023-04-17T11:09:01.109Z,1023.64
2023-04-17T11:10:01.265Z,1023.65
2023-04-17T11:11:01.188Z,1023.65
2023-04-17T11:12:02.138Z,1023.66
2023-04-17T11:13:01.141Z,1023.62
2023-04-17T11:14:01.147Z,1023.63
2023-04-17T11:15:01.153Z,1023.67
2023-04-17T11:16:01.031Z,1023.66
2023-04-17T11:17:04.754Z,1023.64
2023-04-17T11:18:01.898Z,1023.62
2023-04-17T11:19:03.016Z,1023.68
2023-04-17T11:20:01.073Z,1023.66
2023-04-17T11:21:01.030Z,1023.65
2023-04-17T11:22:06.591Z,1023.72
2023-04-17T11:23:01.088Z,1023.66
2023-04-17T11:24:01.128Z,1023.66
2023-04-17T11:25:01.104Z,1023.66
2023-04-17T11:26:01.120Z,1023.68
2023-04-17T11:27:09.416Z,1023.72
2023-04-17T11:28:02.480Z,1023.69
2023-04-17T11:29:01.128Z,1023.72
2023-04-17T11:30:01.172Z,1023.69
2023-04-17T11:31:01.535Z,1023.69
2023-04-17T11:32:11.874Z,1023.68
2023-04-17T11:33:02.350Z,1023.72
2023-04-17T11:34:01.761Z,1023.76
2023-04-17T11:35:01.736Z,1023.74
2023-04-17T11:36:02.596Z,1023.71
2023-04-17T11:37:14.203Z,1023.76
2023-04-17T11:38:01.173Z,1023.75
2023-04-17T11:39:01.113Z,1023.77
2023-04-17T11:40:01.130Z,1023.79
2023-04-17T11:41:01.117Z,1023.8
2023-04-17T11:42:16.065Z,1023.82
2023-04-17T11:43:01.525Z,1023.78
2023-04-17T11:44:01.124Z,1023.83
2023-04-17T11:45:03.042Z,1023.83
2023-04-17T11:46:01.162Z,1023.82
2023-04-17T11:47:01.150Z,1023.82
2023-04-17T11:48:01.202Z,1023.84
2023-04-17T11:49:01.329Z,1023.84
2023-04-17T11:50:01.943Z,1023.87
2023-04-17T11:51:01.066Z,1023.88
2023-04-17T11:52:01.316Z,1023.85
2023-04-17T11:53:01.020Z,1023.85
2023-04-17T11:54:01.084Z,1023.85
2023-04-17T11:55:01.033Z,1023.87
2023-04-17T11:56:01.124Z,1023.86
2023-04-17T11:57:01.112Z,1023.8
2023-04-17T11:58:01.253Z,1023.87
2023-04-17T11:59:01.441Z,1023.83
2023-04-17T12:00:02.115Z,1023.85
2023-04-17T12:01:01.329Z,1023.81
2023-04-17T12:02:01.053Z,1023.87
2023-04-17T12:03:01.797Z,1023.87
2023-04-17T12:04:02.016Z,1023.86
2023-04-17T12:05:01.333Z,1023.82
2023-04-17T12:06:02.852Z,1023.86
2023-04-17T12:07:01.057Z,1023.85
2023-04-17T12:08:01.068Z,1023.84